createdAt,value
2023-02-13T00:03:45.342Z,5.63
2023-02-13T00:08:46.743Z,6.43
2023-02-13T00:13:48.076Z,6.72
2023-02-13T00:18:49.386Z,6.75
2023-02-13T00:23:50.821Z,5.63
2023-02-13T00:28:52.283Z,6.68
2023-02-13T00:33:53.632Z,7.20
2023-02-13T00:38:55.005Z,6.25
2023-02-13T00:43:56.316Z,6.60
2023-02-13T00:48:57.634Z,7.65
2023-02-13T00:53:59.167Z,6.45
2023-02-13T00:59:00.469Z,6.72
2023-02-13T01:04:02.432Z,7.45
2023-02-13T01:09:04.305Z,8.30
2023-02-13T01:14:05.720Z,7.38
2023-02-13T01:19:07.055Z,7.45
2023-02-13T01:24:08.559Z,8.48
2023-02-13T01:29:13.534Z,8.50
2023-02-13T01:34:14.859Z,8.70
2023-02-13T01:39:16.308Z,8.93
2023-02-13T01:44:37.194Z,10.75
2023-02-13T01:49:39.086Z,9.20
2023-02-13T01:54:40.620Z,9.88
2023-02-13T01:59:49.244Z,9.23
2023-02-13T02:04:51.215Z,10.07
2023-02-13T02:09:59.487Z,9.20
2023-02-13T02:15:01.277Z,10.63
2023-02-13T02:20:09.381Z,8.75
2023-02-13T02:25:26.032Z,9.38
2023-02-13T02:30:47.599Z,9.60
2023-02-13T02:35:50.303Z,8.70
2023-02-13T02:41:01.489Z,8.10
2023-02-13T02:46:25.116Z,9.18
2023-02-13T02:51:40.997Z,8.70
2023-02-13T02:56:44.395Z,9.05
2023-02-13T03:02:04.990Z,9.48
2023-02-13T03:07:08.296Z,9.20
2023-02-13T03:12:29.308Z,8.68
2023-02-13T03:17:49.650Z,9.38
2023-02-13T03:23:02.926Z,8.20
2023-02-13T03:28:28.883Z,8.55
2023-02-13T03:33:48.581Z,9.25
2023-02-13T03:43:51.320Z,8.57
2023-02-13T03:49:11.709Z,8.13
2023-02-13T03:54:16.084Z,9.30
2023-02-13T03:59:24.376Z,9.20
2023-02-13T04:04:30.823Z,8.77
2023-02-13T04:09:34.139Z,8.48
2023-02-13T04:14:40.675Z,9.18
2023-02-13T04:19:42.006Z,9.48
2023-02-13T04:24:43.511Z,8.48
2023-02-13T04:29:44.864Z,8.38
2023-02-13T04:34:46.215Z,9.35
2023-02-13T04:39:47.531Z,9.85
2023-02-13T04:44:48.856Z,10.30
2023-02-13T04:49:50.173Z,9.60
2023-02-13T04:54:51.507Z,9.25
2023-02-13T04:59:52.833Z,8.70
2023-02-13T05:04:54.183Z,9.40
2023-02-13T05:09:55.500Z,9.70
2023-02-13T05:14:56.833Z,9.15
2023-02-13T05:19:59.131Z,8.88
2023-02-13T05:25:00.456Z,10.00
2023-02-13T05:30:01.888Z,10.30
2023-02-13T05:35:04.648Z,9.30
2023-02-13T05:40:06.502Z,9.95
2023-02-13T05:45:08.612Z,10.23
2023-02-13T05:50:10.139Z,9.43
2023-02-13T05:55:11.456Z,9.82
2023-02-13T06:00:13.089Z,10.27
2023-02-13T06:05:14.512Z,10.05
2023-02-13T06:10:15.981Z,10.90
2023-02-13T06:15:17.350Z,11.25
2023-02-13T06:20:18.858Z,11.20
2023-02-13T06:25:20.720Z,11.85
2023-02-13T06:30:22.249Z,10.50
2023-02-13T06:35:23.807Z,11.68
2023-02-13T06:40:25.309Z,12.35
2023-02-13T06:45:26.886Z,11.35
2023-02-13T06:50:28.376Z,12.25
2023-02-13T06:55:29.743Z,13.32
2023-02-13T07:00:31.251Z,11.50
2023-02-13T07:05:33.018Z,13.15
2023-02-13T07:10:36.658Z,11.48
2023-02-13T07:15:38.478Z,10.98
2023-02-13T07:20:39.993Z,10.73
2023-02-13T07:25:41.362Z,10.30
2023-02-13T07:30:42.748Z,10.68
2023-02-13T07:35:48.207Z,12.65
2023-02-13T07:40:49.650Z,11.07
2023-02-13T07:45:55.481Z,10.80
2023-02-13T07:51:00.940Z,12.82
2023-02-13T07:56:09.286Z,11.27
2023-02-13T08:01:13.232Z,12.13
2023-02-13T08:06:14.603Z,10.18
2023-02-13T08:11:59.243Z,10.77
2023-02-13T08:17:01.535Z,10.95
2023-02-13T08:22:02.943Z,10.43
2023-02-13T08:27:04.447Z,10.38
2023-02-13T08:32:06.085Z,10.25
2023-02-13T08:37:07.480Z,10.93
2023-02-13T08:42:09.040Z,10.25
2023-02-13T08:47:10.513Z,11.07
2023-02-13T08:52:11.851Z,10.05
2023-02-13T08:57:13.184Z,10.13
2023-02-13T09:02:14.950Z,10.07
2023-02-13T09:07:16.436Z,9.55
2023-02-13T09:12:17.881Z,9.77
2023-02-13T09:17:19.684Z,9.30
2023-02-13T09:22:21.164Z,9.15
2023-02-13T09:27:22.506Z,9.27
2023-02-13T09:32:24.301Z,9.02
2023-02-13T09:37:26.885Z,8.32
2023-02-13T09:42:31.359Z,8.18
2023-02-13T09:47:37.002Z,8.65
2023-02-13T09:52:38.875Z,9.05
2023-02-13T09:57:44.296Z,8.88
2023-02-13T10:02:45.724Z,8.20
2023-02-13T10:08:02.420Z,8.45
2023-02-13T10:13:15.828Z,8.30
2023-02-13T10:18:19.559Z,7.82
2023-02-13T10:23:28.639Z,8.45
2023-02-13T10:28:41.460Z,7.85
2023-02-13T10:33:45.545Z,7.32
2023-02-13T10:38:55.796Z,7.90
2023-02-13T10:44:03.211Z,7.75
2023-02-13T10:49:26.245Z,7.80
2023-02-13T10:54:53.725Z,7.88
2023-02-13T10:59:55.018Z,8.32
2023-02-13T11:04:58.944Z,8.00
2023-02-13T11:10:05.580Z,8.02
2023-02-13T11:15:08.320Z,6.22
2023-02-13T11:20:44.423Z,7.60
2023-02-13T11:26:04.295Z,7.28
2023-02-13T11:36:13.458Z,7.95
2023-02-13T11:41:18.265Z,7.30
2023-02-13T11:46:24.023Z,6.68
2023-02-13T11:51:54.925Z,7.60
2023-02-13T11:57:06.239Z,7.13
2023-02-13T12:02:14.098Z,7.68
2023-02-13T12:07:24.676Z,7.03
2023-02-13T12:12:29.612Z,7.10
2023-02-13T12:17:32.730Z,6.15
2023-02-13T12:22:46.460Z,8.20
2023-02-13T12:28:05.638Z,6.40
2023-02-13T12:33:25.354Z,6.53
2023-02-13T12:38:33.342Z,6.82
2023-02-13T12:43:34.647Z,6.55
2023-02-13T12:48:40.341Z,5.65
2023-02-13T12:53:41.710Z,7.28
2023-02-13T12:58:51.204Z,6.10
2023-02-13T13:04:04.869Z,6.55
2023-02-13T13:09:21.143Z,5.70
2023-02-13T13:14:27.558Z,5.97
2023-02-13T13:19:31.896Z,5.82
2023-02-13T13:24:50.262Z,5.65
2023-02-13T13:29:54.501Z,5.88
2023-02-13T13:34:56.630Z,5.70
2023-02-13T13:40:16.818Z,5.40
2023-02-13T13:45:22.412Z,5.20
2023-02-13T13:50:25.488Z,5.45
2023-02-13T13:55:45.315Z,5.07
2023-02-13T14:06:08.567Z,4.70
2023-02-13T14:11:28.437Z,5.07
2023-02-13T14:21:31.438Z,5.78
2023-02-13T14:26:34.420Z,5.75
2023-02-13T14:31:40.486Z,5.97
2023-02-13T14:36:42.917Z,4.50
2023-02-13T14:41:56.201Z,4.47
2023-02-13T14:46:58.182Z,4.60
2023-02-13T14:52:01.870Z,5.15
2023-02-13T14:57:19.975Z,4.72
2023-02-13T15:02:24.186Z,3.88
2023-02-13T15:07:51.873Z,4.47
2023-02-13T15:12:56.900Z,3.90
2023-02-13T15:18:00.423Z,3.85
2023-02-13T15:23:02.082Z,4.15
2023-02-13T15:28:04.930Z,4.78
2023-02-13T15:33:20.332Z,3.80
2023-02-13T15:38:24.721Z,3.72
2023-02-13T15:43:31.794Z,3.58
2023-02-13T15:48:34.700Z,3.38
2023-02-13T15:53:36.038Z,3.25
2023-02-13T15:58:37.542Z,3.53
2023-02-13T16:03:40.241Z,3.80
2023-02-13T16:08:45.181Z,3.72
2023-02-13T16:14:01.855Z,4.07
2023-02-13T16:19:03.761Z,3.67
2023-02-13T16:24:07.501Z,3.45
2023-02-13T16:29:15.966Z,3.72
2023-02-13T16:34:25.401Z,3.60
2023-02-13T16:39:28.919Z,3.72
2023-02-13T16:44:31.590Z,3.40
2023-02-13T16:49:34.481Z,3.33
2023-02-13T16:54:36.635Z,3.35
2023-02-13T16:59:44.110Z,3.30
2023-02-13T17:04:48.771Z,3.30
2023-02-13T17:09:54.639Z,3.53
2023-02-13T17:14:59.758Z,3.22
2023-02-13T17:20:02.168Z,3.65
2023-02-13T17:25:15.766Z,3.97
2023-02-13T17:30:18.355Z,3.08
2023-02-13T17:35:19.708Z,3.85
2023-02-13T17:40:22.313Z,4.22
2023-02-13T17:45:25.515Z,4.32
2023-02-13T17:50:27.505Z,3.22
2023-02-13T17:55:29.854Z,4.05
2023-02-13T18:00:32.692Z,3.67
2023-02-13T18:05:34.117Z,3.75
2023-02-13T18:10:36.529Z,3.40
2023-02-13T18:15:44.463Z,3.63
2023-02-13T18:20:45.944Z,4.15
2023-02-13T18:25:47.315Z,4.78
2023-02-13T18:30:48.787Z,4.65
2023-02-13T18:35:50.285Z,4.30
2023-02-13T18:40:51.591Z,4.50
2023-02-13T18:45:52.997Z,5.03
2023-02-13T18:50:54.432Z,4.18
2023-02-13T18:56:03.218Z,4.78
2023-02-13T19:01:05.454Z,4.00
2023-02-13T19:06:08.290Z,3.90
2023-02-13T19:11:11.826Z,4.18
2023-02-13T19:16:17.588Z,4.53
2023-02-13T19:21:20.238Z,4.18
2023-02-13T19:26:22.764Z,4.53
2023-02-13T19:31:25.879Z,4.60
2023-02-13T19:36:28.599Z,4.75
2023-02-13T19:41:30.253Z,4.38
2023-02-13T19:46:31.990Z,4.65
2023-02-13T19:51:34.050Z,4.53
2023-02-13T19:56:36.702Z,4.13
2023-02-13T20:01:38.063Z,5.13
2023-02-13T20:06:39.520Z,5.18
2023-02-13T20:11:41.420Z,5.22
2023-02-13T20:16:45.415Z,4.95
2023-02-13T20:21:46.924Z,5.00
2023-02-13T20:26:48.545Z,4.88
2023-02-13T20:31:50.310Z,4.97
2023-02-13T20:36:51.694Z,5.25
2023-02-13T20:41:54.658Z,4.32
2023-02-13T20:46:56.028Z,5.70
2023-02-13T20:51:57.437Z,6.00
2023-02-13T20:56:58.848Z,4.85
2023-02-13T21:02:00.446Z,5.43
2023-02-13T21:07:03.408Z,5.60
2023-02-13T21:12:05.056Z,5.65
2023-02-13T21:17:06.886Z,5.38
2023-02-13T21:22:14.169Z,6.38
2023-02-13T21:27:15.544Z,6.07
2023-02-13T21:32:16.897Z,5.18
2023-02-13T21:37:18.279Z,5.60
2023-02-13T21:42:19.747Z,6.03
2023-02-13T21:47:21.180Z,6.20
2023-02-13T21:52:22.547Z,5.80
2023-02-13T21:57:23.960Z,6.00
2023-02-13T22:02:26.867Z,5.85
2023-02-13T22:07:28.321Z,5.45
2023-02-13T22:12:30.297Z,5.80
2023-02-13T22:17:35.731Z,6.00
2023-02-13T22:22:37.092Z,5.75
2023-02-13T22:27:38.477Z,5.72
2023-02-13T22:32:39.982Z,5.90
2023-02-13T22:37:41.398Z,6.40
2023-02-13T22:42:42.725Z,6.40
2023-02-13T22:47:44.017Z,6.03
2023-02-13T22:52:45.559Z,5.38
2023-02-13T22:57:48.281Z,5.90
2023-02-13T23:02:50.219Z,5.85
2023-02-13T23:07:51.685Z,6.13
2023-02-13T23:12:53.040Z,5.00
2023-02-13T23:18:12.574Z,5.88
2023-02-13T23:23:13.940Z,5.82
2023-02-13T23:28:15.248Z,5.47
2023-02-13T23:33:16.641Z,6.05
2023-02-13T23:38:18.016Z,7.15
2023-02-13T23:43:19.342Z,6.22
2023-02-13T23:48:20.778Z,7.13
2023-02-13T23:53:22.104Z,6.32
2023-02-13T23:58:23.424Z,6.90
